createdAt,value
2022-09-20T00:00:13.800Z,11.00
2022-09-20T00:04:15.333Z,11.00
2022-09-20T00:08:16.885Z,11.00
2022-09-20T00:12:18.460Z,11.00
2022-09-20T00:16:21.930Z,11.00
2022-09-20T00:20:24.113Z,11.10
2022-09-20T00:24:25.922Z,11.10
2022-09-20T00:28:27.631Z,11.00
2022-09-20T00:32:29.185Z,11.00
2022-09-20T00:36:31.304Z,11.00
2022-09-20T00:40:32.937Z,10.90
2022-09-20T00:44:55.908Z,10.80
2022-09-20T00:49:17.712Z,10.90
2022-09-20T00:53:22.255Z,10.70
2022-09-20T00:57:24.080Z,10.70
2022-09-20T01:01:26.052Z,10.80
2022-09-20T01:05:27.749Z,10.70
2022-09-20T01:09:29.261Z,10.70
2022-09-20T01:13:31.022Z,10.70
2022-09-20T01:17:33.556Z,10.70
2022-09-20T01:21:35.320Z,10.60
2022-09-20T01:25:47.724Z,10.70
2022-09-20T01:29:49.282Z,10.60
2022-09-20T01:34:02.050Z,10.70
2022-09-20T01:38:14.151Z,10.80
2022-09-20T01:42:15.699Z,10.70
2022-09-20T01:46:20.304Z,10.70
2022-09-20T01:50:31.022Z,10.60
2022-09-20T01:54:38.562Z,10.60
2022-09-20T01:59:12.549Z,10.70
2022-09-20T02:03:29.272Z,10.70
2022-09-20T02:07:49.501Z,10.70
2022-09-20T02:11:59.176Z,10.70
2022-09-20T02:16:21.531Z,10.80
2022-09-20T02:20:31.896Z,10.70
2022-09-20T02:24:49.146Z,10.80
2022-09-20T02:29:09.619Z,10.80
2022-09-20T02:33:17.391Z,10.90
2022-09-20T02:37:40.350Z,10.90
2022-09-20T02:41:46.884Z,10.90
2022-09-20T02:45:53.197Z,10.90
2022-09-20T02:49:54.784Z,10.90
2022-09-20T02:53:59.353Z,10.80
2022-09-20T02:58:19.915Z,10.60
2022-09-20T03:02:24.663Z,10.70
2022-09-20T03:06:38.955Z,10.70
2022-09-20T03:10:50.294Z,10.70
2022-09-20T03:14:54.857Z,10.70
2022-09-20T03:19:02.635Z,10.80
2022-09-20T03:23:10.696Z,10.70
2022-09-20T03:27:19.359Z,10.70
2022-09-20T03:31:24.054Z,10.60
2022-09-20T03:35:44.448Z,10.60
2022-09-20T03:39:53.924Z,10.50
2022-09-20T03:44:10.831Z,10.50
2022-09-20T03:48:18.655Z,10.50
2022-09-20T03:52:20.143Z,10.60
2022-09-20T03:56:24.862Z,10.50
2022-09-20T04:00:41.741Z,10.60
2022-09-20T04:04:55.783Z,10.60
2022-09-20T04:09:16.028Z,10.60
2022-09-20T04:13:21.780Z,10.60
2022-09-20T04:17:35.647Z,10.60
2022-09-20T04:21:46.200Z,10.60
2022-09-20T04:25:49.646Z,10.60
2022-09-20T04:29:57.438Z,10.60
2022-09-20T04:33:59.861Z,10.60
2022-09-20T04:38:05.686Z,10.60
2022-09-20T04:42:28.795Z,10.60
2022-09-20T04:46:33.606Z,10.60
2022-09-20T04:50:49.190Z,10.60
2022-09-20T04:55:06.135Z,10.60
2022-09-20T04:59:10.164Z,10.60
2022-09-20T05:03:14.856Z,10.50
2022-09-20T05:07:48.668Z,10.40
2022-09-20T05:12:10.558Z,10.50
2022-09-20T05:16:19.974Z,10.40
2022-09-20T05:20:29.390Z,10.40
2022-09-20T05:24:46.702Z,10.40
2022-09-20T05:28:53.733Z,10.30
2022-09-20T05:33:12.752Z,10.30
2022-09-20T05:37:24.250Z,10.30
2022-09-20T05:41:36.882Z,10.30
2022-09-20T05:45:50.084Z,10.20
2022-09-20T05:49:55.019Z,10.20
2022-09-20T05:53:56.511Z,10.40
2022-09-20T05:58:16.353Z,10.50
2022-09-20T06:02:27.254Z,10.40
2022-09-20T06:06:38.474Z,10.50
2022-09-20T06:10:43.327Z,10.60
2022-09-20T06:14:51.114Z,10.80
2022-09-20T06:19:08.127Z,10.90
2022-09-20T06:23:10.118Z,10.90
2022-09-20T06:27:19.229Z,10.90
2022-09-20T06:31:20.755Z,10.90
2022-09-20T06:35:24.311Z,11.00
2022-09-20T06:39:50.648Z,11.00
2022-09-20T06:43:52.180Z,11.00
2022-09-20T06:47:53.747Z,11.10
2022-09-20T06:51:55.786Z,11.10
2022-09-20T06:55:57.675Z,11.20
2022-09-20T06:59:59.213Z,11.20
2022-09-20T07:04:01.187Z,11.30
2022-09-20T07:08:02.711Z,11.30
2022-09-20T07:12:04.303Z,11.40
2022-09-20T07:16:07.153Z,11.30
2022-09-20T07:20:11.615Z,11.50
2022-09-20T07:24:14.988Z,11.60
2022-09-20T07:28:16.516Z,11.70
2022-09-20T07:32:18.067Z,11.80
2022-09-20T07:36:19.725Z,11.80
2022-09-20T07:40:21.252Z,12.00
2022-09-20T07:44:25.900Z,12.10
2022-09-20T07:48:32.108Z,12.10
2022-09-20T07:52:34.267Z,12.20
2022-09-20T07:56:36.140Z,12.20
2022-09-20T08:00:37.745Z,12.10
2022-09-20T08:04:39.253Z,12.30
2022-09-20T08:08:40.926Z,12.40
2022-09-20T08:17:04.260Z,12.50
2022-09-20T08:21:06.484Z,12.50
2022-09-20T08:25:08.107Z,12.60
2022-09-20T08:29:09.944Z,12.70
2022-09-20T08:33:13.131Z,12.60
2022-09-20T08:37:16.480Z,12.80
2022-09-20T08:41:25.178Z,12.80
2022-09-20T08:45:35.001Z,13.10
2022-09-20T08:49:37.387Z,13.00
2022-09-20T08:53:48.785Z,12.90
2022-09-20T08:57:52.924Z,13.00
2022-09-20T09:01:54.634Z,13.00
2022-09-20T09:05:58.089Z,13.10
2022-09-20T09:10:00.617Z,12.90
2022-09-20T09:14:02.176Z,13.00
2022-09-20T09:18:05.690Z,13.20
2022-09-20T09:22:07.375Z,13.30
2022-09-20T09:26:22.986Z,13.70
2022-09-20T09:30:30.112Z,13.20
2022-09-20T09:34:33.924Z,13.60
2022-09-20T09:38:37.011Z,13.80
2022-09-20T09:42:47.628Z,13.90
2022-09-20T09:46:50.372Z,13.70
2022-09-20T09:51:07.224Z,13.60
2022-09-20T09:55:12.243Z,13.60
2022-09-20T09:59:17.195Z,13.80
2022-09-20T10:03:28.637Z,14.00
2022-09-20T10:07:30.182Z,14.30
2022-09-20T10:11:47.164Z,14.40
2022-09-20T10:15:48.759Z,14.70
2022-09-20T10:19:53.418Z,14.20
2022-09-20T10:24:04.072Z,14.00
2022-09-20T10:28:22.744Z,14.30
2022-09-20T10:32:26.553Z,14.50
2022-09-20T10:36:51.620Z,14.30
2022-09-20T10:41:24.267Z,14.00
2022-09-20T10:45:59.473Z,14.00
2022-09-20T10:50:00.860Z,14.00
2022-09-20T10:54:10.103Z,14.50
2022-09-20T10:58:14.702Z,14.40
2022-09-20T11:02:22.613Z,14.10
2022-09-20T11:06:43.136Z,14.20
2022-09-20T11:11:00.105Z,14.20
2022-09-20T11:15:12.471Z,14.10
2022-09-20T11:19:32.855Z,14.00
2022-09-20T11:23:44.414Z,13.90
2022-09-20T11:27:55.500Z,13.90
2022-09-20T11:32:00.812Z,13.80
2022-09-20T11:36:03.923Z,13.80
2022-09-20T11:40:16.013Z,13.90
2022-09-20T11:44:19.250Z,13.80
2022-09-20T11:48:27.073Z,13.90
2022-09-20T11:52:30.059Z,14.00
2022-09-20T11:56:33.074Z,13.90
2022-09-20T12:00:36.327Z,14.00
2022-09-20T12:04:38.403Z,13.80
2022-09-20T12:08:41.575Z,13.90
2022-09-20T12:12:47.425Z,13.90
2022-09-20T12:16:49.864Z,13.80
2022-09-20T12:21:01.955Z,13.90
2022-09-20T12:25:22.627Z,13.90
2022-09-20T12:29:24.128Z,14.00
2022-09-20T12:33:45.587Z,13.90
2022-09-20T12:37:47.104Z,13.70
2022-09-20T12:41:54.160Z,13.70
2022-09-20T12:45:59.907Z,13.70
2022-09-20T12:50:31.479Z,13.80
2022-09-20T12:54:33.975Z,13.60
2022-09-20T12:58:38.000Z,13.60
2022-09-20T13:02:42.656Z,13.30
2022-09-20T13:06:45.051Z,13.30
2022-09-20T13:10:53.569Z,13.00
2022-09-20T13:14:55.351Z,12.90
2022-09-20T13:19:16.212Z,12.80
2022-09-20T13:23:24.863Z,12.80
2022-09-20T13:27:35.081Z,12.90
2022-09-20T13:31:36.683Z,12.80
2022-09-20T13:35:38.298Z,12.90
2022-09-20T13:39:41.223Z,12.60
2022-09-20T13:43:43.662Z,12.80
2022-09-20T13:47:48.532Z,12.80
2022-09-20T13:51:50.652Z,13.00
2022-09-20T13:55:54.630Z,13.10
2022-09-20T13:59:57.829Z,13.50
2022-09-20T14:04:02.548Z,13.20
2022-09-20T14:08:04.794Z,13.10
2022-09-20T14:12:06.863Z,12.80
2022-09-20T14:16:09.162Z,12.60
2022-09-20T14:20:14.024Z,12.60
2022-09-20T14:24:27.121Z,12.40
2022-09-20T14:28:29.128Z,12.60
2022-09-20T14:32:36.070Z,12.60
2022-09-20T14:36:37.700Z,12.60
2022-09-20T14:40:44.221Z,12.70
2022-09-20T14:44:49.723Z,13.00
2022-09-20T14:48:51.250Z,13.00
2022-09-20T14:52:59.926Z,13.20
2022-09-20T14:57:02.425Z,13.10
2022-09-20T15:01:06.979Z,13.10
2022-09-20T15:05:16.844Z,13.20
2022-09-20T15:09:19.224Z,13.30
2022-09-20T15:13:20.829Z,13.50
2022-09-20T15:17:23.984Z,13.60
2022-09-20T15:21:25.875Z,13.60
2022-09-20T15:25:29.856Z,13.60
2022-09-20T15:29:31.531Z,13.70
2022-09-20T15:33:33.320Z,13.60
2022-09-20T15:37:34.941Z,13.60
2022-09-20T15:41:36.484Z,13.50
2022-09-20T15:45:49.288Z,13.50
2022-09-20T15:49:51.107Z,13.40
2022-09-20T15:53:55.692Z,13.30
2022-09-20T15:57:57.295Z,13.40
2022-09-20T16:01:59.526Z,13.50
2022-09-20T16:06:04.397Z,13.70
2022-09-20T16:10:06.261Z,13.60
2022-09-20T16:14:08.035Z,13.40
2022-09-20T16:18:32.623Z,13.40
2022-09-20T16:22:34.270Z,13.40
2022-09-20T16:26:36.216Z,13.30
2022-09-20T16:30:37.722Z,13.30
2022-09-20T16:34:39.453Z,13.20
2022-09-20T16:38:43.438Z,13.20
2022-09-20T16:42:52.127Z,13.30
2022-09-20T16:46:53.956Z,13.20
2022-09-20T16:50:55.884Z,13.10
2022-09-20T16:54:57.487Z,13.20
2022-09-20T16:58:59.575Z,13.10
2022-09-20T17:03:01.145Z,13.10
2022-09-20T17:07:02.661Z,13.10
2022-09-20T17:11:05.078Z,13.20
2022-09-20T17:15:07.134Z,13.10
2022-09-20T17:19:09.806Z,13.00
2022-09-20T17:23:11.412Z,13.10
2022-09-20T17:27:12.929Z,13.00
2022-09-20T17:31:19.126Z,12.90
2022-09-20T17:35:20.729Z,12.80
2022-09-20T17:39:22.422Z,12.70
2022-09-20T17:43:23.953Z,12.60
2022-09-20T17:47:25.560Z,12.50
2022-09-20T17:51:29.029Z,12.50
2022-09-20T17:55:30.664Z,12.40
2022-09-20T17:59:33.668Z,12.30
2022-09-20T18:03:36.660Z,12.20
2022-09-20T18:07:38.279Z,12.20
2022-09-20T18:11:41.173Z,12.00
2022-09-20T18:15:45.516Z,12.00
2022-09-20T18:19:47.148Z,11.90
2022-09-20T18:23:49.020Z,11.90
2022-09-20T18:27:50.718Z,11.90
2022-09-20T18:31:54.282Z,11.90
2022-09-20T18:35:59.729Z,11.80
2022-09-20T18:40:01.674Z,11.80
2022-09-20T18:44:04.584Z,11.70
2022-09-20T18:48:07.408Z,11.60
2022-09-20T18:52:10.721Z,11.50
2022-09-20T18:56:19.202Z,11.40
2022-09-20T19:00:21.059Z,11.20
2022-09-20T19:04:32.002Z,11.00
2022-09-20T19:08:40.612Z,11.10
2022-09-20T19:12:57.474Z,10.90
2022-09-20T19:17:02.227Z,10.90
2022-09-20T19:21:22.507Z,10.80
2022-09-20T19:25:44.336Z,10.70
2022-09-20T19:29:46.094Z,10.60
2022-09-20T19:33:48.519Z,10.60
2022-09-20T19:38:05.940Z,10.60
2022-09-20T19:42:10.574Z,10.50
2022-09-20T19:46:20.953Z,10.50
2022-09-20T19:50:28.008Z,10.70
2022-09-20T19:54:31.184Z,10.50
2022-09-20T19:58:32.957Z,10.40
2022-09-20T20:02:34.737Z,10.40
2022-09-20T20:06:36.334Z,10.30
2022-09-20T20:10:43.944Z,10.30
2022-09-20T20:14:53.443Z,10.20
2022-09-20T20:18:57.964Z,10.20
2022-09-20T20:22:59.862Z,10.20
2022-09-20T20:27:01.355Z,10.10
2022-09-20T20:31:03.310Z,10.00
2022-09-20T20:35:05.169Z,9.90
2022-09-20T20:39:06.893Z,9.90
2022-09-20T20:43:09.435Z,9.80
2022-09-20T20:47:11.178Z,9.80
2022-09-20T20:51:14.030Z,9.90
2022-09-20T20:55:15.677Z,9.80
2022-09-20T20:59:17.404Z,9.80
2022-09-20T21:03:18.956Z,9.80
2022-09-20T21:07:20.598Z,9.70
2022-09-20T21:11:27.375Z,9.50
2022-09-20T21:15:28.989Z,9.50
2022-09-20T21:19:30.574Z,9.60
2022-09-20T21:23:33.693Z,9.50
2022-09-20T21:27:36.987Z,9.50
2022-09-20T21:31:39.740Z,9.50
2022-09-20T21:35:41.382Z,9.50
2022-09-20T21:39:42.932Z,9.40
2022-09-20T21:43:45.817Z,9.30
2022-09-20T21:47:48.833Z,9.30
2022-09-20T21:51:53.143Z,9.30
2022-09-20T21:55:58.404Z,9.20
2022-09-20T22:00:00.042Z,9.20
2022-09-20T22:04:09.659Z,9.20
2022-09-20T22:08:11.336Z,9.30
2022-09-20T22:12:12.893Z,9.30
2022-09-20T22:16:15.817Z,9.10
2022-09-20T22:20:17.365Z,9.10
2022-09-20T22:24:19.022Z,9.10
2022-09-20T22:28:20.590Z,9.10
2022-09-20T22:32:22.111Z,9.00
2022-09-20T22:36:28.776Z,8.90
2022-09-20T22:40:30.447Z,8.90
2022-09-20T22:44:31.999Z,9.00
2022-09-20T22:48:34.262Z,9.00
2022-09-20T22:52:35.767Z,8.90
2022-09-20T22:56:38.115Z,9.00
2022-09-20T23:00:39.635Z,9.00
2022-09-20T23:04:41.152Z,8.80
2022-09-20T23:08:42.827Z,8.80
2022-09-20T23:12:44.340Z,8.80
2022-09-20T23:16:46.466Z,8.80
2022-09-20T23:20:48.028Z,8.70
2022-09-20T23:24:49.863Z,8.70
2022-09-20T23:28:53.115Z,8.60
2022-09-20T23:32:56.802Z,8.60
2022-09-20T23:36:58.453Z,8.60
2022-09-20T23:41:06.952Z,8.60
2022-09-20T23:45:09.096Z,8.50
2022-09-20T23:49:10.680Z,8.50
2022-09-20T23:53:12.536Z,8.40
2022-09-20T23:57:15.207Z,8.50
